Halltown, West Virginia
Current Conditions -  °F | °C
As of 3:53 PM on Thursday 20 Nov 2014 (Local Time) from KMRB Reporting Station
Clear Clear  
Wind Chill: 38°   Ceiling: Unl
Heat Index: 45°   Visibility: 10mi
Dew Point: 12°   Wind: 17mph
Humidity: 26%   Direction: 280°W
Pressure: 29.93"   Gusts: 25mph
Location:  39.31°N, 77.8°W
Report Text: KMRB 202053Z 28015G22KT 10SM CLR 07/M11 A2993 RMK AO2 PK WND 28026/2007 SLP137 T00721111 53007
Loading
Personal Weather Stations






























Interactive Weather Map New forecast layout! Learn more

10-Day Weather Forecast

Advertisements
Track Severe Weather on mobile